createdAt,value
2023-04-01T00:00:40.899Z,0.00
2023-04-01T00:01:40.872Z,0.00
2023-04-01T00:02:40.941Z,0.00
2023-04-01T00:03:40.917Z,0.00
2023-04-01T00:04:40.910Z,0.00
2023-04-01T00:05:40.837Z,0.00
2023-04-01T00:06:40.845Z,0.00
2023-04-01T00:07:40.799Z,0.00
2023-04-01T00:08:40.818Z,0.00
2023-04-01T00:09:40.778Z,0.00
2023-04-01T00:10:40.790Z,0.00
2023-04-01T00:11:40.760Z,0.00
2023-04-01T00:12:40.792Z,0.00
2023-04-01T00:13:40.740Z,0.00
2023-04-01T00:14:40.764Z,0.00
2023-04-01T00:15:40.712Z,0.00
2023-04-01T00:16:40.755Z,0.00
2023-04-01T00:17:40.745Z,0.00
2023-04-01T00:18:40.699Z,0.00
2023-04-01T00:19:40.672Z,0.00
2023-04-01T00:20:40.679Z,0.00
2023-04-01T00:21:40.658Z,0.00
2023-04-01T00:22:40.667Z,0.00
2023-04-01T00:23:40.630Z,0.00
2023-04-01T00:24:40.653Z,0.00
2023-04-01T00:25:40.618Z,0.00
2023-04-01T00:26:40.610Z,0.00
2023-04-01T00:27:40.586Z,0.00
2023-04-01T00:28:40.603Z,0.00
2023-04-01T00:29:40.564Z,0.00
2023-04-01T00:30:40.573Z,0.00
2023-04-01T00:31:40.582Z,0.00
2023-04-01T00:32:40.628Z,0.00
2023-04-01T00:33:40.539Z,0.00
2023-04-01T00:34:40.541Z,0.00
2023-04-01T00:35:40.499Z,0.00
2023-04-01T00:36:40.542Z,0.00
2023-04-01T00:37:40.492Z,0.00
2023-04-01T00:38:40.524Z,0.00
2023-04-01T00:39:40.457Z,0.00
2023-04-01T00:40:40.484Z,0.00
2023-04-01T00:41:40.448Z,0.00
2023-04-01T00:42:40.443Z,0.00
2023-04-01T00:43:40.445Z,0.00
2023-04-01T00:44:40.454Z,0.00
2023-04-01T00:45:40.413Z,0.00
2023-04-01T00:46:40.429Z,0.00
2023-04-01T00:47:40.480Z,0.00
2023-04-01T00:48:40.400Z,0.00
2023-04-01T00:49:40.371Z,0.00
2023-04-01T00:50:40.371Z,0.00
2023-04-01T00:51:40.349Z,0.00
2023-04-01T00:52:40.337Z,0.00
2023-04-01T00:53:40.314Z,0.00
2023-04-01T00:54:40.330Z,0.00
2023-04-01T00:55:40.295Z,0.00
2023-04-01T00:56:40.300Z,0.00
2023-04-01T00:57:40.282Z,0.00
2023-04-01T00:58:40.294Z,0.00
2023-04-01T00:59:40.247Z,0.00
2023-04-01T01:00:40.341Z,0.00
2023-04-01T01:01:40.224Z,0.00
2023-04-01T01:02:40.443Z,0.00
2023-04-01T01:03:40.223Z,0.00
2023-04-01T01:04:40.222Z,0.00
2023-04-01T01:05:48.687Z,0.00
2023-04-01T01:06:40.209Z,0.00
2023-04-01T01:07:40.182Z,0.00
2023-04-01T01:08:40.148Z,0.00
2023-04-01T01:09:40.201Z,0.00
2023-04-01T01:10:40.150Z,0.00
2023-04-01T01:11:43.648Z,0.00
2023-04-01T01:12:40.105Z,0.00
2023-04-01T01:13:40.129Z,0.00
2023-04-01T01:14:40.088Z,0.00
2023-04-01T01:15:40.119Z,0.00
2023-04-01T01:16:40.162Z,0.00
2023-04-01T01:17:40.128Z,0.00
2023-04-01T01:18:40.059Z,0.00
2023-04-01T01:19:40.058Z,0.00
2023-04-01T01:20:40.052Z,0.00
2023-04-01T01:21:40.025Z,0.00
2023-04-01T01:22:40.014Z,0.00
2023-04-01T01:23:40.018Z,0.00
2023-04-01T01:24:39.982Z,0.00
2023-04-01T01:25:39.997Z,0.00
2023-04-01T01:26:39.975Z,0.00
2023-04-01T01:27:39.972Z,0.00
2023-04-01T01:28:39.930Z,0.00
2023-04-01T01:29:39.959Z,0.00
2023-04-01T01:30:39.962Z,0.00
2023-04-01T01:31:39.914Z,0.00
2023-04-01T01:32:39.968Z,0.00
2023-04-01T01:33:39.918Z,0.00
2023-04-01T01:34:39.868Z,0.00
2023-04-01T01:35:39.903Z,0.00
2023-04-01T01:36:39.854Z,0.00
2023-04-01T01:37:39.855Z,0.00
2023-04-01T01:38:39.823Z,0.00
2023-04-01T01:39:39.829Z,0.00
2023-04-01T01:40:39.800Z,0.00
2023-04-01T01:41:39.832Z,0.00
2023-04-01T01:42:39.800Z,0.00
2023-04-01T01:43:39.797Z,0.00
2023-04-01T01:44:39.755Z,0.00
2023-04-01T01:45:39.780Z,0.00
2023-04-01T01:46:39.786Z,0.00
2023-04-01T01:47:39.794Z,0.00
2023-04-01T01:48:39.713Z,0.00
2023-04-01T01:49:39.721Z,0.00
2023-04-01T01:50:39.691Z,0.00
2023-04-01T01:51:39.726Z,0.00
2023-04-01T01:52:39.687Z,0.00
2023-04-01T01:53:39.678Z,0.00
2023-04-01T01:54:39.649Z,0.00
2023-04-01T01:55:39.669Z,0.00
2023-04-01T01:56:39.637Z,0.00
2023-04-01T01:57:39.652Z,0.00
2023-04-01T01:58:39.601Z,0.00
2023-04-01T01:59:39.624Z,0.00
2023-04-01T02:00:39.581Z,0.00
2023-04-01T02:01:39.622Z,0.00
2023-04-01T02:02:39.585Z,0.00
2023-04-01T02:03:39.582Z,0.00
2023-04-01T02:04:39.594Z,0.00
2023-04-01T02:05:39.549Z,0.00
2023-04-01T02:06:39.525Z,0.00
2023-04-01T02:07:39.528Z,0.00
2023-04-01T02:08:39.500Z,0.00
2023-04-01T02:09:39.515Z,0.00
2023-04-01T02:10:39.480Z,0.00
2023-04-01T02:11:39.481Z,0.00
2023-04-01T02:12:39.453Z,0.00
2023-04-01T02:13:39.485Z,0.00
2023-04-01T02:14:39.434Z,0.00
2023-04-01T02:15:39.464Z,0.00
2023-04-01T02:16:39.416Z,0.00
2023-04-01T02:17:39.442Z,0.00
2023-04-01T02:18:39.388Z,0.00
2023-04-01T02:19:39.412Z,0.00
2023-04-01T02:20:39.387Z,0.00
2023-04-01T02:21:39.386Z,0.00
2023-04-01T02:22:39.354Z,0.00
2023-04-01T02:23:39.379Z,0.00
2023-04-01T02:24:39.323Z,0.00
2023-04-01T02:25:39.328Z,0.00
2023-04-01T02:26:39.298Z,0.00
2023-04-01T02:27:39.324Z,0.00
2023-04-01T02:28:39.286Z,0.00
2023-04-01T02:29:39.310Z,0.00
2023-04-01T02:30:39.262Z,0.00
2023-04-01T02:31:39.293Z,0.00
2023-04-01T02:32:39.310Z,0.00
2023-04-01T02:33:39.243Z,0.00
2023-04-01T02:34:39.244Z,0.00
2023-04-01T02:35:39.242Z,0.00
2023-04-01T02:36:39.198Z,0.00
2023-04-01T02:37:40.417Z,0.00
2023-04-01T02:38:39.168Z,0.00
2023-04-01T02:39:39.198Z,0.00
2023-04-01T02:40:39.158Z,0.00
2023-04-01T02:41:39.151Z,0.00
2023-04-01T02:42:39.133Z,0.00
2023-04-01T02:43:39.145Z,0.00
2023-04-01T02:44:39.116Z,0.00
2023-04-01T02:45:39.125Z,0.00
2023-04-01T02:46:39.129Z,0.00
2023-04-01T02:47:39.149Z,0.00
2023-04-01T02:48:39.089Z,0.00
2023-04-01T02:49:39.093Z,0.00
2023-04-01T02:50:39.042Z,0.00
2023-04-01T02:51:39.061Z,0.00
2023-04-01T02:52:39.045Z,0.00
2023-04-01T02:53:39.030Z,0.00
2023-04-01T02:54:39.008Z,0.00
2023-04-01T02:55:39.007Z,0.00
2023-04-01T02:56:39.004Z,0.00
2023-04-01T02:57:38.984Z,0.00
2023-04-01T02:58:38.972Z,0.00
2023-04-01T02:59:38.969Z,0.00
2023-04-01T03:00:38.938Z,0.00
2023-04-01T03:01:38.989Z,0.00
2023-04-01T03:02:38.990Z,0.00
2023-04-01T03:03:38.962Z,0.00
2023-04-01T03:04:38.891Z,0.00
2023-04-01T03:05:38.900Z,0.00
2023-04-01T03:06:38.878Z,0.00
2023-04-01T03:07:38.902Z,0.00
2023-04-01T03:08:38.857Z,0.00
2023-04-01T03:09:38.861Z,0.00
2023-04-01T03:10:38.829Z,0.00
2023-04-01T03:11:38.833Z,0.00
2023-04-01T03:12:38.809Z,0.00
2023-04-01T03:13:38.837Z,0.00
2023-04-01T03:14:38.797Z,0.00
2023-04-01T03:15:38.802Z,0.00
2023-04-01T03:16:38.810Z,0.00
2023-04-01T03:17:38.806Z,0.00
2023-04-01T03:18:38.751Z,0.00
2023-04-01T03:19:38.744Z,0.00
2023-04-01T03:20:38.719Z,0.00
2023-04-01T03:21:38.732Z,0.00
2023-04-01T03:22:40.252Z,0.00
2023-04-01T03:23:38.707Z,0.00
2023-04-01T03:24:38.675Z,0.00
2023-04-01T03:25:38.727Z,0.00
2023-04-01T03:26:38.661Z,0.00
2023-04-01T03:27:38.665Z,0.00
2023-04-01T03:28:38.632Z,0.00
2023-04-01T03:29:38.692Z,0.00
2023-04-01T03:30:38.639Z,0.00
2023-04-01T03:31:38.627Z,0.00
2023-04-01T03:32:38.620Z,0.00
2023-04-01T03:33:38.598Z,0.00
2023-04-01T03:34:38.561Z,0.00
2023-04-01T03:35:38.598Z,0.00
2023-04-01T03:36:38.588Z,0.00
2023-04-01T03:37:38.568Z,0.00
2023-04-01T03:38:38.522Z,0.00
2023-04-01T03:39:38.539Z,0.00
2023-04-01T03:40:38.494Z,0.00
2023-04-01T03:41:38.544Z,0.00
2023-04-01T03:42:38.497Z,0.00
2023-04-01T03:43:38.483Z,0.00
2023-04-01T03:44:38.465Z,0.00
2023-04-01T03:45:38.483Z,0.00
2023-04-01T03:46:38.513Z,0.00
2023-04-01T03:47:38.471Z,0.00
2023-04-01T03:48:38.409Z,0.00
2023-04-01T03:49:38.423Z,0.00
2023-04-01T03:50:38.398Z,0.00
2023-04-01T03:51:38.411Z,0.00
2023-04-01T03:52:38.379Z,0.00
2023-04-01T03:53:38.397Z,0.00
2023-04-01T03:54:38.376Z,0.00
2023-04-01T03:55:38.367Z,0.00
2023-04-01T03:56:38.338Z,0.00
2023-04-01T03:57:38.354Z,0.00
2023-04-01T03:58:38.317Z,0.00
2023-04-01T03:59:38.327Z,0.00
2023-04-01T04:00:38.281Z,0.00
2023-04-01T04:01:38.295Z,0.00
2023-04-01T04:02:38.356Z,0.00
2023-04-01T04:03:38.444Z,0.00
2023-04-01T04:04:38.309Z,0.00
2023-04-01T04:05:38.247Z,0.00
2023-04-01T04:06:38.223Z,0.00
2023-04-01T04:07:38.229Z,0.00
2023-04-01T04:08:38.211Z,0.00
2023-04-01T04:09:38.218Z,0.00
2023-04-01T04:10:38.184Z,0.00
2023-04-01T04:11:38.196Z,0.00
2023-04-01T04:12:38.179Z,0.00
2023-04-01T04:13:38.164Z,0.00
2023-04-01T04:14:38.141Z,0.00
2023-04-01T04:15:38.171Z,0.00
2023-04-01T04:16:38.119Z,0.00
2023-04-01T04:17:38.170Z,0.00
2023-04-01T04:18:38.099Z,0.00
2023-04-01T04:19:38.137Z,0.00
2023-04-01T04:20:38.076Z,0.00
2023-04-01T04:21:38.089Z,0.00
2023-04-01T04:22:38.068Z,0.00
2023-04-01T04:23:38.060Z,0.00
2023-04-01T04:24:38.037Z,0.00
2023-04-01T04:25:38.059Z,0.00
2023-04-01T04:26:38.003Z,0.00
2023-04-01T04:27:38.030Z,0.00
2023-04-01T04:28:37.983Z,0.00
2023-04-01T04:29:38.009Z,0.00
2023-04-01T04:30:37.982Z,0.00
2023-04-01T04:31:37.989Z,0.00
2023-04-01T04:32:37.899Z,0.00
2023-04-01T04:33:37.946Z,0.00
2023-04-01T04:34:37.881Z,0.00
2023-04-01T04:35:37.967Z,0.00
2023-04-01T04:36:37.916Z,0.00
2023-04-01T04:37:37.917Z,0.00
2023-04-01T04:38:37.830Z,0.00
2023-04-01T04:39:37.893Z,0.00
2023-04-01T04:40:37.855Z,0.00
2023-04-01T04:41:37.871Z,0.00
2023-04-01T04:42:37.800Z,0.00
2023-04-01T04:43:37.797Z,0.00
2023-04-01T04:44:37.783Z,0.00
2023-04-01T04:45:37.780Z,0.00
2023-04-01T04:46:37.846Z,0.00
2023-04-01T04:47:37.770Z,0.00
2023-04-01T04:48:37.721Z,0.00
2023-04-01T04:49:37.719Z,0.00
2023-04-01T04:50:37.718Z,0.00
2023-04-01T04:51:37.710Z,0.00
2023-04-01T04:52:37.670Z,0.00
2023-04-01T04:53:37.691Z,0.00
2023-04-01T04:54:37.676Z,0.00
2023-04-01T04:55:37.673Z,0.00
2023-04-01T04:56:37.636Z,0.00
2023-04-01T04:57:37.644Z,0.00
2023-04-01T04:58:37.600Z,0.00
2023-04-01T04:59:37.629Z,0.00
2023-04-01T05:00:37.586Z,0.00
2023-04-01T05:01:37.665Z,0.00
2023-04-01T05:02:37.635Z,0.00
2023-04-01T05:03:37.582Z,0.00
2023-04-01T05:04:37.558Z,0.00
2023-04-01T05:05:37.561Z,0.00
2023-04-01T05:06:37.519Z,0.00
2023-04-01T05:07:37.556Z,0.00
2023-04-01T05:08:37.503Z,0.00
2023-04-01T05:09:37.515Z,0.00
2023-04-01T05:10:37.473Z,0.00
2023-04-01T05:11:37.493Z,0.00
2023-04-01T05:12:37.451Z,0.00
2023-04-01T05:13:37.461Z,0.00
2023-04-01T05:14:37.459Z,0.00
2023-04-01T05:15:37.434Z,0.00
2023-04-01T05:16:37.462Z,0.00
2023-04-01T05:17:37.489Z,0.00
2023-04-01T05:18:37.396Z,0.00
2023-04-01T05:19:37.389Z,0.00
2023-04-01T05:20:37.362Z,0.00
2023-04-01T05:21:37.353Z,0.00
2023-04-01T05:22:37.356Z,0.00
2023-04-01T05:23:37.339Z,0.00
2023-04-01T05:24:37.367Z,0.00
2023-04-01T05:25:37.321Z,0.00
2023-04-01T05:26:37.328Z,0.00
2023-04-01T05:27:37.286Z,0.00
2023-04-01T05:28:37.306Z,0.00
2023-04-01T05:29:37.263Z,0.00
2023-04-01T05:30:37.311Z,0.00
2023-04-01T05:31:37.251Z,0.00
2023-04-01T05:32:37.280Z,0.00
2023-04-01T05:33:37.223Z,0.00
2023-04-01T05:34:37.253Z,0.00
2023-04-01T05:35:37.234Z,0.00
2023-04-01T05:36:37.231Z,0.00
2023-04-01T05:37:37.196Z,0.00
2023-04-01T05:38:37.213Z,5.62
2023-04-01T05:39:37.156Z,5.62
2023-04-01T05:40:37.222Z,5.62
2023-04-01T05:41:37.143Z,5.62
2023-04-01T05:42:38.286Z,5.62
2023-04-01T05:43:37.120Z,5.62
2023-04-01T05:44:37.151Z,5.62
2023-04-01T05:45:37.094Z,5.62
2023-04-01T05:46:37.218Z,5.62
2023-04-01T05:47:37.105Z,5.62
2023-04-01T05:48:37.101Z,5.62
2023-04-01T05:49:37.071Z,5.62
2023-04-01T05:50:37.070Z,5.62
2023-04-01T05:51:37.032Z,5.62
2023-04-01T05:52:37.034Z,5.62
2023-04-01T05:53:37.010Z,5.62
2023-04-01T05:54:37.017Z,5.62
2023-04-01T05:55:37.004Z,5.62
2023-04-01T05:56:37.005Z,5.62
2023-04-01T05:57:36.989Z,5.62
2023-04-01T05:58:36.980Z,5.62
2023-04-01T05:59:36.945Z,5.62
2023-04-01T06:00:36.953Z,5.62
2023-04-01T06:01:36.927Z,5.62
2023-04-01T06:02:36.964Z,5.62
2023-04-01T06:03:37.081Z,5.62
2023-04-01T06:04:36.938Z,5.62
2023-04-01T06:05:36.893Z,5.62
2023-04-01T06:06:36.894Z,5.62
2023-04-01T06:07:36.853Z,11.25
2023-04-01T06:08:36.866Z,11.25
2023-04-01T06:09:36.844Z,11.25
2023-04-01T06:10:36.838Z,16.88
2023-04-01T06:11:36.843Z,16.88
2023-04-01T06:12:36.832Z,16.88
2023-04-01T06:13:36.792Z,16.88
2023-04-01T06:14:36.809Z,11.25
2023-04-01T06:15:36.782Z,22.50
2023-04-01T06:16:36.831Z,22.50
2023-04-01T06:17:36.770Z,11.25
2023-04-01T06:18:36.772Z,11.25
2023-04-01T06:19:36.723Z,16.88
2023-04-01T06:20:36.726Z,16.88
2023-04-01T06:21:36.699Z,22.50
2023-04-01T06:22:36.742Z,16.88
2023-04-01T06:23:36.752Z,16.88
2023-04-01T06:24:36.711Z,16.88
2023-04-01T06:25:36.655Z,16.88
2023-04-01T06:26:36.681Z,16.88
2023-04-01T06:27:36.648Z,16.88
2023-04-01T06:28:36.647Z,16.88
2023-04-01T06:29:36.624Z,22.50
2023-04-01T06:30:36.636Z,33.75
2023-04-01T06:31:36.632Z,33.75
2023-04-01T06:32:36.662Z,73.12
2023-04-01T06:33:36.595Z,39.38
2023-04-01T06:34:36.578Z,33.75
2023-04-01T06:35:36.879Z,33.75
2023-04-01T06:36:36.612Z,33.75
2023-04-01T06:37:36.570Z,33.75
2023-04-01T06:38:36.537Z,33.75
2023-04-01T06:39:36.518Z,33.75
2023-04-01T06:40:36.517Z,33.75
2023-04-01T06:41:36.508Z,39.38
2023-04-01T06:42:36.497Z,33.75
2023-04-01T06:43:36.480Z,39.38
2023-04-01T06:44:36.486Z,39.38
2023-04-01T06:45:36.805Z,39.38
2023-04-01T06:46:36.456Z,39.38
2023-04-01T06:47:36.443Z,33.75
2023-04-01T06:48:36.430Z,28.12
2023-04-01T06:49:36.423Z,28.12
2023-04-01T06:50:36.423Z,28.12
2023-04-01T06:51:36.393Z,28.12
2023-04-01T06:52:36.400Z,28.12
2023-04-01T06:53:36.410Z,28.12
2023-04-01T06:54:36.378Z,28.12
2023-04-01T06:55:36.335Z,28.12
2023-04-01T06:56:36.341Z,28.12
2023-04-01T06:57:36.325Z,28.12
2023-04-01T06:58:36.365Z,28.12
2023-04-01T06:59:36.321Z,28.12
2023-04-01T07:00:36.324Z,28.12
2023-04-01T07:01:36.301Z,28.12
2023-04-01T07:02:36.300Z,22.50
2023-04-01T07:03:36.272Z,22.50
2023-04-01T07:04:36.292Z,22.50
2023-04-01T07:05:36.257Z,28.12
2023-04-01T07:06:36.253Z,28.12
2023-04-01T07:07:36.225Z,28.12
2023-04-01T07:08:36.213Z,28.12
2023-04-01T07:09:36.184Z,28.12
2023-04-01T07:10:36.201Z,33.75
2023-04-01T07:11:36.179Z,33.75
2023-04-01T07:12:36.278Z,33.75
2023-04-01T07:13:36.149Z,33.75
2023-04-01T07:14:36.165Z,39.38
2023-04-01T07:15:36.148Z,39.38
2023-04-01T07:16:36.157Z,39.38
2023-04-01T07:17:36.127Z,39.38
2023-04-01T07:18:36.117Z,39.38
2023-04-01T07:19:36.076Z,39.38
2023-04-01T07:20:36.115Z,39.38
2023-04-01T07:21:36.061Z,33.75
2023-04-01T07:22:36.059Z,33.75
2023-04-01T07:23:36.038Z,33.75
2023-04-01T07:24:36.039Z,33.75
2023-04-01T07:25:36.162Z,28.12
2023-04-01T07:26:36.117Z,28.12
2023-04-01T07:27:36.011Z,28.12
2023-04-01T07:28:36.065Z,28.12
2023-04-01T07:29:34.957Z,28.12
2023-04-01T07:30:36.003Z,28.12
2023-04-01T07:31:36.023Z,28.12
2023-04-01T07:32:36.441Z,28.12
2023-04-01T07:33:35.940Z,33.75
2023-04-01T07:34:35.931Z,33.75
2023-04-01T07:35:35.901Z,33.75
2023-04-01T07:36:35.910Z,33.75
2023-04-01T07:37:35.887Z,33.75
2023-04-01T07:38:35.953Z,33.75
2023-04-01T07:39:35.883Z,39.38
2023-04-01T07:40:35.874Z,33.75
2023-04-01T07:41:35.872Z,33.75
2023-04-01T07:42:35.840Z,33.75
2023-04-01T07:43:35.830Z,33.75
2023-04-01T07:44:35.824Z,39.38
2023-04-01T07:45:36.154Z,39.38
2023-04-01T07:46:35.834Z,33.75
2023-04-01T07:47:35.814Z,28.12
2023-04-01T07:48:35.775Z,33.75
2023-04-01T07:49:35.758Z,39.38
2023-04-01T07:50:35.766Z,39.38
2023-04-01T07:51:35.828Z,28.12
2023-04-01T07:52:35.746Z,22.50
2023-04-01T07:53:35.715Z,22.50
2023-04-01T07:54:35.742Z,22.50
2023-04-01T07:55:36.026Z,22.50
2023-04-01T07:56:35.688Z,22.50
2023-04-01T07:57:35.664Z,22.50
2023-04-01T07:58:35.667Z,28.12
2023-04-01T07:59:35.642Z,28.12
2023-04-01T08:00:35.672Z,28.12
2023-04-01T08:01:35.623Z,28.12
2023-04-01T08:02:35.688Z,28.12
2023-04-01T08:03:35.718Z,33.75
2023-04-01T08:04:35.695Z,33.75
2023-04-01T08:05:35.793Z,33.75
2023-04-01T08:06:35.596Z,33.75
2023-04-01T08:07:35.581Z,33.75
2023-04-01T08:08:35.557Z,33.75
2023-04-01T08:09:35.543Z,28.12
2023-04-01T08:10:35.581Z,28.12
2023-04-01T08:11:35.543Z,28.12
2023-04-01T08:12:35.524Z,28.12
2023-04-01T08:13:35.504Z,28.12
2023-04-01T08:14:35.493Z,28.12
2023-04-01T08:15:35.700Z,28.12
2023-04-01T08:16:35.638Z,33.75
2023-04-01T08:17:35.460Z,28.12
2023-04-01T08:18:35.463Z,28.12
2023-04-01T08:19:35.424Z,33.75
2023-04-01T08:20:35.432Z,33.75
2023-04-01T08:21:35.397Z,39.38
2023-04-01T08:22:35.416Z,39.38
2023-04-01T08:23:35.378Z,39.38
2023-04-01T08:24:46.602Z,39.38
2023-04-01T08:25:35.593Z,39.38
2023-04-01T08:26:35.385Z,39.38
2023-04-01T08:27:35.329Z,39.38
2023-04-01T08:28:35.363Z,39.38
2023-04-01T08:29:35.322Z,33.75
2023-04-01T08:30:35.319Z,28.12
2023-04-01T08:31:35.343Z,22.50
2023-04-01T08:32:35.345Z,28.12
2023-04-01T08:33:35.270Z,28.12
2023-04-01T08:34:35.274Z,28.12
2023-04-01T08:35:37.007Z,28.12
2023-04-01T08:36:35.305Z,28.12
2023-04-01T08:37:35.219Z,33.75
2023-04-01T08:38:35.256Z,33.75
2023-04-01T08:39:35.265Z,33.75
2023-04-01T08:40:35.226Z,33.75
2023-04-01T08:41:35.220Z,33.75
2023-04-01T08:42:35.192Z,33.75
2023-04-01T08:43:35.166Z,33.75
2023-04-01T08:44:35.165Z,28.12
2023-04-01T08:45:35.406Z,28.12
2023-04-01T08:46:35.180Z,28.12
2023-04-01T08:47:35.161Z,28.12
2023-04-01T08:48:35.133Z,28.12
2023-04-01T08:49:35.089Z,28.12
2023-04-01T08:50:35.124Z,33.75
2023-04-01T08:51:35.080Z,33.75
2023-04-01T08:52:35.080Z,33.75
2023-04-01T08:53:35.051Z,39.38
2023-04-01T08:54:35.069Z,39.38
2023-04-01T08:55:35.306Z,39.38
2023-04-01T08:56:35.074Z,39.38
2023-04-01T08:57:35.064Z,39.38
2023-04-01T08:58:35.036Z,39.38
2023-04-01T08:59:34.985Z,39.38
2023-04-01T09:00:35.025Z,39.38
2023-04-01T09:01:34.968Z,39.38
2023-04-01T09:02:35.079Z,39.38
2023-04-01T09:03:35.137Z,39.38
2023-04-01T09:04:35.040Z,33.75
2023-04-01T09:05:35.151Z,28.12
2023-04-01T09:06:34.933Z,28.12
2023-04-01T09:07:34.894Z,28.12
2023-04-01T09:08:34.920Z,28.12
2023-04-01T09:09:34.884Z,28.12
2023-04-01T09:10:34.890Z,28.12
2023-04-01T09:11:34.884Z,33.75
2023-04-01T09:12:34.917Z,33.75
2023-04-01T09:13:34.842Z,33.75
2023-04-01T09:14:34.867Z,33.75
2023-04-01T09:15:35.107Z,33.75
2023-04-01T09:16:34.949Z,33.75
2023-04-01T09:17:34.831Z,33.75
2023-04-01T09:18:34.805Z,33.75
2023-04-01T09:19:34.772Z,39.38
2023-04-01T09:20:34.786Z,39.38
2023-04-01T09:21:34.745Z,39.38
2023-04-01T09:22:34.798Z,39.38
2023-04-01T09:23:34.724Z,39.38
2023-04-01T09:24:34.740Z,45.00
2023-04-01T09:25:35.099Z,39.38
2023-04-01T09:26:34.713Z,39.38
2023-04-01T09:27:34.682Z,39.38
2023-04-01T09:28:34.687Z,33.75
2023-04-01T09:29:34.708Z,33.75
2023-04-01T09:30:34.696Z,28.12
2023-04-01T09:31:34.670Z,22.50
2023-04-01T09:32:34.693Z,22.50
2023-04-01T09:33:34.617Z,28.12
2023-04-01T09:34:34.645Z,28.12
2023-04-01T09:35:34.958Z,33.75
2023-04-01T09:36:34.593Z,33.75
2023-04-01T09:37:34.597Z,33.75
2023-04-01T09:38:34.568Z,33.75
2023-04-01T09:39:34.608Z,39.38
2023-04-01T09:40:34.544Z,39.38
2023-04-01T09:41:34.562Z,33.75
2023-04-01T09:42:34.529Z,33.75
2023-04-01T09:43:34.604Z,33.75
2023-04-01T09:44:34.501Z,28.12
2023-04-01T09:45:34.692Z,33.75
2023-04-01T09:46:34.511Z,28.12
2023-04-01T09:47:34.515Z,33.75
2023-04-01T09:48:34.478Z,28.12
2023-04-01T09:49:34.484Z,33.75
2023-04-01T09:50:34.441Z,33.75
2023-04-01T09:51:34.448Z,33.75
2023-04-01T09:52:34.428Z,39.38
2023-04-01T09:53:34.441Z,39.38
2023-04-01T09:54:34.400Z,33.75
2023-04-01T09:55:34.746Z,33.75
2023-04-01T09:56:34.420Z,33.75
2023-04-01T09:57:34.430Z,33.75
2023-04-01T09:58:34.350Z,39.38
2023-04-01T09:59:34.376Z,39.38
2023-04-01T10:00:34.338Z,33.75
2023-04-01T10:01:34.424Z,33.75
2023-04-01T10:02:34.358Z,39.38
2023-04-01T10:03:34.337Z,39.38
2023-04-01T10:04:34.304Z,39.38
2023-04-01T10:05:34.540Z,33.75
2023-04-01T10:06:34.290Z,39.38
2023-04-01T10:07:34.286Z,39.38
2023-04-01T10:08:34.236Z,39.38
2023-04-01T10:09:34.262Z,39.38
2023-04-01T10:10:34.210Z,33.75
2023-04-01T10:11:34.239Z,33.75
2023-04-01T10:12:34.229Z,39.38
2023-04-01T10:13:34.195Z,39.38
2023-04-01T10:14:34.177Z,39.38
2023-04-01T10:15:34.544Z,39.38
2023-04-01T10:16:34.243Z,39.38
2023-04-01T10:17:34.205Z,33.75
2023-04-01T10:18:34.134Z,33.75
2023-04-01T10:19:34.198Z,33.75
2023-04-01T10:20:34.099Z,39.38
2023-04-01T10:21:34.120Z,39.38
2023-04-01T10:22:34.091Z,45.00
2023-04-01T10:23:34.105Z,45.00
2023-04-01T10:24:34.088Z,45.00
2023-04-01T10:25:34.306Z,50.62
2023-04-01T10:26:34.104Z,50.62
2023-04-01T10:27:34.066Z,56.25
2023-04-01T10:28:34.020Z,56.25
2023-04-01T10:29:34.040Z,61.88
2023-04-01T10:30:34.008Z,61.88
2023-04-01T10:31:34.151Z,67.50
2023-04-01T10:32:34.599Z,67.50
2023-04-01T10:33:33.983Z,67.50
2023-04-01T10:34:33.953Z,67.50
2023-04-01T10:35:34.202Z,67.50
2023-04-01T10:36:33.926Z,67.50
2023-04-01T10:37:33.952Z,67.50
2023-04-01T10:38:33.917Z,61.88
2023-04-01T10:39:33.924Z,50.62
2023-04-01T10:40:33.888Z,50.62
2023-04-01T10:41:33.909Z,45.00
2023-04-01T10:42:33.868Z,45.00
2023-04-01T10:43:33.879Z,45.00
2023-04-01T10:44:33.838Z,45.00
2023-04-01T10:45:34.070Z,39.38
2023-04-01T10:46:33.946Z,39.38
2023-04-01T10:47:33.845Z,39.38
2023-04-01T10:48:33.793Z,45.00
2023-04-01T10:49:33.801Z,45.00
2023-04-01T10:50:33.794Z,39.38
2023-04-01T10:51:33.777Z,39.38
2023-04-01T10:52:33.777Z,39.38
2023-04-01T10:53:33.757Z,39.38
2023-04-01T10:54:33.781Z,39.38
2023-04-01T10:55:33.962Z,33.75
2023-04-01T10:56:33.714Z,33.75
2023-04-01T10:57:33.989Z,28.12
2023-04-01T10:58:33.701Z,33.75
2023-04-01T10:59:33.792Z,33.75
2023-04-01T11:00:33.687Z,33.75
2023-04-01T11:01:33.737Z,39.38
2023-04-01T11:02:33.691Z,33.75
2023-04-01T11:03:33.832Z,28.12
2023-04-01T11:04:33.626Z,28.12
2023-04-01T11:05:33.887Z,33.75
2023-04-01T11:06:33.607Z,33.75
2023-04-01T11:07:33.626Z,39.38
2023-04-01T11:08:33.584Z,39.38
2023-04-01T11:09:33.585Z,39.38
2023-04-01T11:10:33.615Z,33.75
2023-04-01T11:11:33.586Z,28.12
2023-04-01T11:12:33.536Z,28.12
2023-04-01T11:13:33.602Z,28.12
2023-04-01T11:14:33.525Z,28.12
2023-04-01T11:15:33.792Z,22.50
2023-04-01T11:16:33.577Z,28.12
2023-04-01T11:17:33.608Z,28.12
2023-04-01T11:18:33.470Z,28.12
2023-04-01T11:19:33.501Z,22.50
2023-04-01T11:20:33.448Z,22.50
2023-04-01T11:21:33.454Z,22.50
2023-04-01T11:22:33.433Z,22.50
2023-04-01T11:23:33.438Z,22.50
2023-04-01T11:24:33.426Z,22.50
2023-04-01T11:25:33.604Z,22.50
2023-04-01T11:26:33.414Z,22.50
2023-04-01T11:27:33.387Z,22.50
2023-04-01T11:28:33.359Z,28.12
2023-04-01T11:29:33.381Z,33.75
2023-04-01T11:30:33.376Z,33.75
2023-04-01T11:31:33.415Z,33.75
2023-04-01T11:32:33.337Z,39.38
2023-04-01T11:33:33.325Z,33.75
2023-04-01T11:34:33.321Z,33.75
2023-04-01T11:35:33.529Z,33.75
2023-04-01T11:36:33.325Z,39.38
2023-04-01T11:37:33.280Z,39.38
2023-04-01T11:38:33.265Z,39.38
2023-04-01T11:39:33.273Z,39.38
2023-04-01T11:40:33.236Z,33.75
2023-04-01T11:41:33.262Z,33.75
2023-04-01T11:42:33.257Z,39.38
2023-04-01T11:43:34.059Z,39.38
2023-04-01T11:44:33.194Z,33.75
2023-04-01T11:45:33.332Z,28.12
2023-04-01T11:46:33.231Z,33.75
2023-04-01T11:47:33.258Z,33.75
2023-04-01T11:48:33.144Z,33.75
2023-04-01T11:49:33.170Z,28.12
2023-04-01T11:50:33.126Z,28.12
2023-04-01T11:51:33.162Z,33.75
2023-04-01T11:52:33.112Z,33.75
2023-04-01T11:53:33.132Z,33.75
2023-04-01T11:54:33.101Z,28.12
2023-04-01T11:55:33.373Z,28.12
2023-04-01T11:56:33.063Z,28.12
2023-04-01T11:57:33.105Z,28.12
2023-04-01T11:58:33.035Z,28.12
2023-04-01T11:59:33.042Z,33.75
2023-04-01T12:00:33.014Z,33.75
2023-04-01T12:01:33.035Z,33.75
2023-04-01T12:02:33.089Z,33.75
2023-04-01T12:03:33.181Z,39.38
2023-04-01T12:04:33.003Z,39.38
2023-04-01T12:05:33.106Z,45.00
2023-04-01T12:06:32.952Z,50.62
2023-04-01T12:07:32.968Z,56.25
2023-04-01T12:08:32.931Z,61.88
2023-04-01T12:09:32.933Z,61.88
2023-04-01T12:10:32.923Z,61.88
2023-04-01T12:11:32.923Z,56.25
2023-04-01T12:12:32.890Z,56.25
2023-04-01T12:13:32.939Z,50.62
2023-04-01T12:14:32.866Z,50.62
2023-04-01T12:15:33.012Z,45.00
2023-04-01T12:16:33.002Z,45.00
2023-04-01T12:17:32.896Z,45.00
2023-04-01T12:18:32.822Z,45.00
2023-04-01T12:19:32.850Z,45.00
2023-04-01T12:20:32.798Z,39.38
2023-04-01T12:21:32.827Z,39.38
2023-04-01T12:22:33.966Z,39.38
2023-04-01T12:23:32.798Z,39.38
2023-04-01T12:24:32.885Z,39.38
2023-04-01T12:25:32.987Z,39.38
2023-04-01T12:26:32.733Z,39.38
2023-04-01T12:27:32.740Z,39.38
2023-04-01T12:28:32.729Z,39.38
2023-04-01T12:29:32.764Z,33.75
2023-04-01T12:30:32.692Z,39.38
2023-04-01T12:31:32.720Z,33.75
2023-04-01T12:32:32.673Z,28.12
2023-04-01T12:33:32.679Z,28.12
2023-04-01T12:34:32.672Z,33.75
2023-04-01T12:35:33.050Z,28.12
2023-04-01T12:36:32.631Z,28.12
2023-04-01T12:37:32.645Z,28.12
2023-04-01T12:38:32.605Z,22.50
2023-04-01T12:39:32.616Z,28.12
2023-04-01T12:40:32.889Z,22.50
2023-04-01T12:41:32.590Z,22.50
2023-04-01T12:42:32.561Z,28.12
2023-04-01T12:43:32.569Z,28.12
2023-04-01T12:44:32.540Z,33.75
2023-04-01T12:45:32.901Z,33.75
2023-04-01T12:46:32.625Z,33.75
2023-04-01T12:47:32.566Z,28.12
2023-04-01T12:48:32.491Z,22.50
2023-04-01T12:49:32.504Z,28.12
2023-04-01T12:50:32.484Z,28.12
2023-04-01T12:51:32.480Z,28.12
2023-04-01T12:52:32.450Z,33.75
2023-04-01T12:53:32.455Z,28.12
2023-04-01T12:54:32.428Z,28.12
2023-04-01T12:55:32.582Z,22.50
2023-04-01T12:56:32.421Z,28.12
2023-04-01T12:57:32.559Z,28.12
2023-04-01T12:58:32.389Z,28.12
2023-04-01T12:59:32.399Z,22.50
2023-04-01T13:00:32.369Z,28.12
2023-04-01T13:01:32.396Z,28.12
2023-04-01T13:02:32.373Z,28.12
2023-04-01T13:03:32.378Z,33.75
2023-04-01T13:04:32.322Z,28.12